sensor_id;sensor_type;location;lat;lon;timestamp;P1;durP1;ratioP1;P2;durP2;ratioP2
37955;SDS011;23776;51.592;7.180;2022-08-21T00:01:42;5.43;;;2.90;;
37955;SDS011;23776;51.592;7.180;2022-08-21T00:04:08;9.43;;;3.13;;
37955;SDS011;23776;51.592;7.180;2022-08-21T00:06:35;6.05;;;3.13;;
37955;SDS011;23776;51.592;7.180;2022-08-21T00:09:02;8.32;;;3.00;;
37955;SDS011;23776;51.592;7.180;2022-08-21T00:11:29;4.90;;;2.50;;
37955;SDS011;23776;51.592;7.180;2022-08-21T00:13:55;7.57;;;2.90;;
37955;SDS011;23776;51.592;7.180;2022-08-21T00:16:21;8.70;;;3.08;;
37955;SDS011;23776;51.592;7.180;2022-08-21T00:18:48;7.55;;;3.13;;
37955;SDS011;23776;51.592;7.180;2022-08-21T00:21:14;9.00;;;2.55;;
37955;SDS011;23776;51.592;7.180;2022-08-21T00:23:41;13.35;;;3.00;;
37955;SDS011;23776;51.592;7.180;2022-08-21T00:26:07;8.80;;;3.40;;
37955;SDS011;23776;51.592;7.180;2022-08-21T00:28:33;7.78;;;3.00;;
37955;SDS011;23776;51.592;7.180;2022-08-21T00:30:59;11.68;;;3.75;;
37955;SDS011;23776;51.592;7.180;2022-08-21T00:33:25;7.65;;;3.47;;
37955;SDS011;23776;51.592;7.180;2022-08-21T00:35:51;10.65;;;3.47;;
37955;SDS011;23776;51.592;7.180;2022-08-21T00:38:18;11.75;;;3.65;;
37955;SDS011;23776;51.592;7.180;2022-08-21T00:40:48;8.18;;;4.15;;
37955;SDS011;23776;51.592;7.180;2022-08-21T00:43:15;8.73;;;3.70;;
37955;SDS011;23776;51.592;7.180;2022-08-21T00:45:42;10.18;;;4.03;;
37955;SDS011;23776;51.592;7.180;2022-08-21T00:48:08;6.93;;;3.40;;
37955;SDS011;23776;51.592;7.180;2022-08-21T00:50:35;10.07;;;3.45;;
37955;SDS011;23776;51.592;7.180;2022-08-21T00:53:04;7.85;;;3.35;;
37955;SDS011;23776;51.592;7.180;2022-08-21T00:55:31;10.38;;;3.17;;
37955;SDS011;23776;51.592;7.180;2022-08-21T00:57:58;8.18;;;3.13;;
37955;SDS011;23776;51.592;7.180;2022-08-21T01:00:26;14.73;;;4.07;;
37955;SDS011;23776;51.592;7.180;2022-08-21T01:02:54;8.93;;;3.45;;
37955;SDS011;23776;51.592;7.180;2022-08-21T01:05:21;7.68;;;3.20;;
37955;SDS011;23776;51.592;7.180;2022-08-21T01:07:47;8.90;;;3.22;;
37955;SDS011;23776;51.592;7.180;2022-08-21T01:10:13;10.57;;;3.75;;
37955;SDS011;23776;51.592;7.180;2022-08-21T01:12:39;7.60;;;3.50;;
37955;SDS011;23776;51.592;7.180;2022-08-21T01:15:06;10.60;;;3.20;;
37955;SDS011;23776;51.592;7.180;2022-08-21T01:17:32;5.72;;;3.35;;
37955;SDS011;23776;51.592;7.180;2022-08-21T01:19:59;7.47;;;3.53;;
37955;SDS011;23776;51.592;7.180;2022-08-21T01:22:25;11.02;;;3.72;;
37955;SDS011;23776;51.592;7.180;2022-08-21T01:24:52;6.45;;;3.33;;
37955;SDS011;23776;51.592;7.180;2022-08-21T01:29:55;10.13;;;3.50;;
37955;SDS011;23776;51.592;7.180;2022-08-21T01:32:22;9.38;;;3.10;;
37955;SDS011;23776;51.592;7.180;2022-08-21T01:34:49;9.93;;;3.40;;
37955;SDS011;23776;51.592;7.180;2022-08-21T01:37:16;7.25;;;3.42;;
37955;SDS011;23776;51.592;7.180;2022-08-21T01:39:42;12.90;;;3.63;;
37955;SDS011;23776;51.592;7.180;2022-08-21T01:42:09;14.18;;;3.72;;
37955;SDS011;23776;51.592;7.180;2022-08-21T01:44:35;10.05;;;3.42;;
37955;SDS011;23776;51.592;7.180;2022-08-21T01:47:03;9.98;;;3.20;;
37955;SDS011;23776;51.592;7.180;2022-08-21T01:49:29;7.80;;;3.25;;
37955;SDS011;23776;51.592;7.180;2022-08-21T01:51:55;13.98;;;3.13;;
37955;SDS011;23776;51.592;7.180;2022-08-21T01:54:22;14.93;;;3.83;;
37955;SDS011;23776;51.592;7.180;2022-08-21T01:56:48;7.43;;;3.42;;
37955;SDS011;23776;51.592;7.180;2022-08-21T01:59:15;7.50;;;3.88;;
37955;SDS011;23776;51.592;7.180;2022-08-21T02:01:41;10.63;;;4.03;;
37955;SDS011;23776;51.592;7.180;2022-08-21T02:04:08;14.95;;;4.07;;
37955;SDS011;23776;51.592;7.180;2022-08-21T02:06:34;9.82;;;3.58;;
37955;SDS011;23776;51.592;7.180;2022-08-21T02:09:02;8.85;;;4.57;;
37955;SDS011;23776;51.592;7.180;2022-08-21T02:11:28;8.07;;;3.47;;
37955;SDS011;23776;51.592;7.180;2022-08-21T02:13:54;8.48;;;3.65;;
37955;SDS011;23776;51.592;7.180;2022-08-21T02:16:20;10.65;;;3.78;;
37955;SDS011;23776;51.592;7.180;2022-08-21T02:18:46;11.77;;;3.85;;
37955;SDS011;23776;51.592;7.180;2022-08-21T02:21:12;6.75;;;4.00;;
37955;SDS011;23776;51.592;7.180;2022-08-21T02:23:38;11.95;;;3.83;;
37955;SDS011;23776;51.592;7.180;2022-08-21T02:26:05;11.40;;;3.92;;
37955;SDS011;23776;51.592;7.180;2022-08-21T02:28:32;8.50;;;3.67;;
37955;SDS011;23776;51.592;7.180;2022-08-21T02:30:58;9.38;;;4.78;;
37955;SDS011;23776;51.592;7.180;2022-08-21T02:33:24;7.38;;;4.57;;
37955;SDS011;23776;51.592;7.180;2022-08-21T02:35:50;10.05;;;4.05;;
37955;SDS011;23776;51.592;7.180;2022-08-21T02:38:19;9.00;;;3.30;;
37955;SDS011;23776;51.592;7.180;2022-08-21T02:40:46;7.53;;;3.97;;
37955;SDS011;23776;51.592;7.180;2022-08-21T02:43:12;11.90;;;4.20;;
37955;SDS011;23776;51.592;7.180;2022-08-21T02:45:39;8.93;;;4.32;;
37955;SDS011;23776;51.592;7.180;2022-08-21T02:48:07;7.00;;;3.92;;
37955;SDS011;23776;51.592;7.180;2022-08-21T02:50:35;9.23;;;4.30;;
37955;SDS011;23776;51.592;7.180;2022-08-21T02:53:01;10.45;;;4.80;;
37955;SDS011;23776;51.592;7.180;2022-08-21T02:55:29;10.45;;;3.92;;
37955;SDS011;23776;51.592;7.180;2022-08-21T02:57:55;9.77;;;4.50;;
37955;SDS011;23776;51.592;7.180;2022-08-21T03:00:23;9.00;;;4.13;;
37955;SDS011;23776;51.592;7.180;2022-08-21T03:02:50;6.82;;;3.58;;
37955;SDS011;23776;51.592;7.180;2022-08-21T03:05:16;9.73;;;4.28;;
37955;SDS011;23776;51.592;7.180;2022-08-21T03:07:43;10.88;;;4.10;;
37955;SDS011;23776;51.592;7.180;2022-08-21T03:10:09;11.50;;;3.92;;
37955;SDS011;23776;51.592;7.180;2022-08-21T03:12:35;6.85;;;4.07;;
37955;SDS011;23776;51.592;7.180;2022-08-21T03:15:03;9.48;;;4.10;;
37955;SDS011;23776;51.592;7.180;2022-08-21T03:17:29;7.97;;;4.45;;
37955;SDS011;23776;51.592;7.180;2022-08-21T03:19:55;8.07;;;3.65;;
37955;SDS011;23776;51.592;7.180;2022-08-21T03:22:21;7.20;;;4.28;;
37955;SDS011;23776;51.592;7.180;2022-08-21T03:24:47;11.50;;;4.30;;
37955;SDS011;23776;51.592;7.180;2022-08-21T03:27:13;6.25;;;4.32;;
37955;SDS011;23776;51.592;7.180;2022-08-21T03:29:40;8.63;;;4.30;;
37955;SDS011;23776;51.592;7.180;2022-08-21T03:32:06;7.95;;;4.68;;
37955;SDS011;23776;51.592;7.180;2022-08-21T03:34:35;12.60;;;4.40;;
37955;SDS011;23776;51.592;7.180;2022-08-21T03:37:02;9.23;;;4.40;;
37955;SDS011;23776;51.592;7.180;2022-08-21T03:39:28;12.93;;;5.70;;
37955;SDS011;23776;51.592;7.180;2022-08-21T03:41:54;9.10;;;4.63;;
37955;SDS011;23776;51.592;7.180;2022-08-21T03:44:20;10.50;;;4.55;;
37955;SDS011;23776;51.592;7.180;2022-08-21T03:46:46;14.73;;;4.90;;
37955;SDS011;23776;51.592;7.180;2022-08-21T03:49:13;6.40;;;3.90;;
37955;SDS011;23776;51.592;7.180;2022-08-21T03:51:39;8.75;;;3.85;;
37955;SDS011;23776;51.592;7.180;2022-08-21T03:54:05;10.70;;;4.18;;
37955;SDS011;23776;51.592;7.180;2022-08-21T03:56:31;6.90;;;4.00;;
37955;SDS011;23776;51.592;7.180;2022-08-21T03:58:57;8.80;;;4.75;;
37955;SDS011;23776;51.592;7.180;2022-08-21T04:01:23;10.77;;;4.03;;
37955;SDS011;23776;51.592;7.180;2022-08-21T04:03:49;10.00;;;4.45;;
37955;SDS011;23776;51.592;7.180;2022-08-21T04:06:15;10.30;;;4.40;;
37955;SDS011;23776;51.592;7.180;2022-08-21T04:08:41;6.45;;;3.90;;
37955;SDS011;23776;51.592;7.180;2022-08-21T04:11:07;7.80;;;3.78;;
37955;SDS011;23776;51.592;7.180;2022-08-21T04:13:35;7.00;;;4.40;;
37955;SDS011;23776;51.592;7.180;2022-08-21T04:16:01;7.55;;;4.35;;
37955;SDS011;23776;51.592;7.180;2022-08-21T04:18:27;9.32;;;4.25;;
37955;SDS011;23776;51.592;7.180;2022-08-21T04:20:53;7.93;;;4.05;;
37955;SDS011;23776;51.592;7.180;2022-08-21T04:23:22;7.93;;;3.80;;
37955;SDS011;23776;51.592;7.180;2022-08-21T04:25:48;8.15;;;4.00;;
37955;SDS011;23776;51.592;7.180;2022-08-21T04:28:14;6.10;;;3.65;;
37955;SDS011;23776;51.592;7.180;2022-08-21T04:30:41;9.85;;;3.67;;
37955;SDS011;23776;51.592;7.180;2022-08-21T04:33:07;6.32;;;3.40;;
37955;SDS011;23776;51.592;7.180;2022-08-21T04:35:33;7.93;;;4.20;;
37955;SDS011;23776;51.592;7.180;2022-08-21T04:37:59;9.90;;;4.78;;
37955;SDS011;23776;51.592;7.180;2022-08-21T04:40:26;8.10;;;4.50;;
37955;SDS011;23776;51.592;7.180;2022-08-21T04:42:57;7.95;;;5.10;;
37955;SDS011;23776;51.592;7.180;2022-08-21T04:45:29;10.57;;;4.60;;
37955;SDS011;23776;51.592;7.180;2022-08-21T04:47:57;9.70;;;4.47;;
37955;SDS011;23776;51.592;7.180;2022-08-21T04:50:24;8.10;;;4.32;;
37955;SDS011;23776;51.592;7.180;2022-08-21T04:52:51;11.40;;;4.78;;
37955;SDS011;23776;51.592;7.180;2022-08-21T04:55:18;8.05;;;5.30;;
37955;SDS011;23776;51.592;7.180;2022-08-21T04:57:44;7.40;;;4.30;;
37955;SDS011;23776;51.592;7.180;2022-08-21T05:00:10;13.15;;;5.25;;
37955;SDS011;23776;51.592;7.180;2022-08-21T05:02:38;9.27;;;4.32;;
37955;SDS011;23776;51.592;7.180;2022-08-21T05:05:05;8.70;;;4.35;;
37955;SDS011;23776;51.592;7.180;2022-08-21T05:07:31;7.82;;;4.63;;
37955;SDS011;23776;51.592;7.180;2022-08-21T05:09:58;8.48;;;4.13;;
37955;SDS011;23776;51.592;7.180;2022-08-21T05:12:24;9.98;;;4.53;;
37955;SDS011;23776;51.592;7.180;2022-08-21T05:14:50;8.68;;;4.35;;
37955;SDS011;23776;51.592;7.180;2022-08-21T05:17:16;6.10;;;3.90;;
37955;SDS011;23776;51.592;7.180;2022-08-21T05:19:43;9.68;;;4.22;;
37955;SDS011;23776;51.592;7.180;2022-08-21T05:22:09;8.20;;;4.47;;
37955;SDS011;23776;51.592;7.180;2022-08-21T05:24:35;8.32;;;4.78;;
37955;SDS011;23776;51.592;7.180;2022-08-21T05:27:01;7.97;;;4.22;;
37955;SDS011;23776;51.592;7.180;2022-08-21T05:29:28;7.93;;;4.45;;
37955;SDS011;23776;51.592;7.180;2022-08-21T05:31:55;11.10;;;4.53;;
37955;SDS011;23776;51.592;7.180;2022-08-21T05:34:21;7.70;;;4.65;;
37955;SDS011;23776;51.592;7.180;2022-08-21T05:36:48;9.68;;;5.30;;
37955;SDS011;23776;51.592;7.180;2022-08-21T05:39:14;9.43;;;5.45;;
37955;SDS011;23776;51.592;7.180;2022-08-21T05:41:40;11.15;;;5.35;;
37955;SDS011;23776;51.592;7.180;2022-08-21T05:44:06;10.20;;;5.65;;
37955;SDS011;23776;51.592;7.180;2022-08-21T05:46:32;9.63;;;5.85;;
37955;SDS011;23776;51.592;7.180;2022-08-21T05:48:58;8.30;;;5.20;;
37955;SDS011;23776;51.592;7.180;2022-08-21T05:51:24;11.55;;;6.40;;
37955;SDS011;23776;51.592;7.180;2022-08-21T05:53:50;11.85;;;6.55;;
37955;SDS011;23776;51.592;7.180;2022-08-21T05:56:16;11.98;;;7.93;;
37955;SDS011;23776;51.592;7.180;2022-08-21T05:58:42;14.20;;;7.32;;
37955;SDS011;23776;51.592;7.180;2022-08-21T06:01:09;20.08;;;9.13;;
37955;SDS011;23776;51.592;7.180;2022-08-21T06:03:36;15.50;;;9.02;;
37955;SDS011;23776;51.592;7.180;2022-08-21T06:06:02;17.25;;;9.63;;
37955;SDS011;23776;51.592;7.180;2022-08-21T06:08:28;19.05;;;8.13;;
37955;SDS011;23776;51.592;7.180;2022-08-21T06:10:56;17.25;;;9.65;;
37955;SDS011;23776;51.592;7.180;2022-08-21T06:13:22;20.20;;;10.13;;
37955;SDS011;23776;51.592;7.180;2022-08-21T06:15:49;20.10;;;11.02;;
37955;SDS011;23776;51.592;7.180;2022-08-21T06:18:25;19.55;;;10.48;;
37955;SDS011;23776;51.592;7.180;2022-08-21T06:20:50;21.38;;;11.18;;
37955;SDS011;23776;51.592;7.180;2022-08-21T06:23:16;21.88;;;10.10;;
37955;SDS011;23776;51.592;7.180;2022-08-21T06:25:42;23.42;;;11.50;;
37955;SDS011;23776;51.592;7.180;2022-08-21T06:28:09;24.60;;;11.52;;
37955;SDS011;23776;51.592;7.180;2022-08-21T06:30:36;22.17;;;11.25;;
37955;SDS011;23776;51.592;7.180;2022-08-21T06:33:02;23.92;;;10.27;;
37955;SDS011;23776;51.592;7.180;2022-08-21T06:35:28;21.15;;;10.60;;
37955;SDS011;23776;51.592;7.180;2022-08-21T06:37:55;24.73;;;10.15;;
37955;SDS011;23776;51.592;7.180;2022-08-21T06:40:21;18.95;;;8.77;;
37955;SDS011;23776;51.592;7.180;2022-08-21T06:42:47;17.90;;;9.80;;
37955;SDS011;23776;51.592;7.180;2022-08-21T06:45:13;22.70;;;9.15;;
37955;SDS011;23776;51.592;7.180;2022-08-21T06:47:39;19.75;;;9.15;;
37955;SDS011;23776;51.592;7.180;2022-08-21T06:50:05;18.70;;;7.90;;
37955;SDS011;23776;51.592;7.180;2022-08-21T06:52:35;19.65;;;8.20;;
37955;SDS011;23776;51.592;7.180;2022-08-21T06:55:02;16.75;;;8.13;;
37955;SDS011;23776;51.592;7.180;2022-08-21T06:57:29;20.30;;;9.82;;
37955;SDS011;23776;51.592;7.180;2022-08-21T06:59:55;18.45;;;9.77;;
37955;SDS011;23776;51.592;7.180;2022-08-21T07:02:21;21.15;;;8.50;;
37955;SDS011;23776;51.592;7.180;2022-08-21T07:04:47;23.25;;;9.10;;
37955;SDS011;23776;51.592;7.180;2022-08-21T07:07:13;20.55;;;9.75;;
37955;SDS011;23776;51.592;7.180;2022-08-21T07:09:39;19.48;;;9.50;;
37955;SDS011;23776;51.592;7.180;2022-08-21T07:12:05;19.88;;;9.68;;
37955;SDS011;23776;51.592;7.180;2022-08-21T07:14:31;15.13;;;8.63;;
37955;SDS011;23776;51.592;7.180;2022-08-21T07:16:57;26.00;;;9.25;;
37955;SDS011;23776;51.592;7.180;2022-08-21T07:19:23;14.70;;;8.55;;
37955;SDS011;23776;51.592;7.180;2022-08-21T07:21:49;19.35;;;7.13;;
37955;SDS011;23776;51.592;7.180;2022-08-21T07:24:15;14.20;;;5.40;;
37955;SDS011;23776;51.592;7.180;2022-08-21T07:26:41;13.25;;;5.00;;
37955;SDS011;23776;51.592;7.180;2022-08-21T07:29:07;11.45;;;4.63;;
37955;SDS011;23776;51.592;7.180;2022-08-21T07:31:33;18.20;;;4.82;;
37955;SDS011;23776;51.592;7.180;2022-08-21T07:33:59;17.23;;;4.93;;
37955;SDS011;23776;51.592;7.180;2022-08-21T07:36:25;13.00;;;4.80;;
37955;SDS011;23776;51.592;7.180;2022-08-21T07:38:51;14.32;;;5.22;;
37955;SDS011;23776;51.592;7.180;2022-08-21T07:41:19;14.32;;;4.35;;
37955;SDS011;23776;51.592;7.180;2022-08-21T07:43:46;21.83;;;5.13;;
37955;SDS011;23776;51.592;7.180;2022-08-21T07:46:13;14.20;;;4.90;;
37955;SDS011;23776;51.592;7.180;2022-08-21T07:48:39;10.48;;;4.47;;
37955;SDS011;23776;51.592;7.180;2022-08-21T07:51:06;11.82;;;5.15;;
37955;SDS011;23776;51.592;7.180;2022-08-21T07:53:33;18.85;;;6.00;;
37955;SDS011;23776;51.592;7.180;2022-08-21T07:55:59;11.55;;;4.45;;
37955;SDS011;23776;51.592;7.180;2022-08-21T07:58:25;16.23;;;4.95;;
37955;SDS011;23776;51.592;7.180;2022-08-21T08:00:51;17.17;;;4.63;;
37955;SDS011;23776;51.592;7.180;2022-08-21T08:03:17;17.23;;;5.15;;
37955;SDS011;23776;51.592;7.180;2022-08-21T08:05:43;10.57;;;4.00;;
37955;SDS011;23776;51.592;7.180;2022-08-21T08:08:09;12.73;;;4.20;;
37955;SDS011;23776;51.592;7.180;2022-08-21T08:10:36;23.92;;;4.05;;
37955;SDS011;23776;51.592;7.180;2022-08-21T08:13:03;13.77;;;3.92;;
37955;SDS011;23776;51.592;7.180;2022-08-21T08:15:29;15.02;;;4.10;;
37955;SDS011;23776;51.592;7.180;2022-08-21T08:17:56;14.40;;;4.00;;
37955;SDS011;23776;51.592;7.180;2022-08-21T08:20:22;11.45;;;3.58;;
37955;SDS011;23776;51.592;7.180;2022-08-21T08:22:50;15.95;;;3.92;;
37955;SDS011;23776;51.592;7.180;2022-08-21T08:25:16;10.25;;;3.80;;
37955;SDS011;23776;51.592;7.180;2022-08-21T08:27:43;8.63;;;3.90;;
37955;SDS011;23776;51.592;7.180;2022-08-21T08:30:10;9.50;;;3.53;;
37955;SDS011;23776;51.592;7.180;2022-08-21T08:32:36;11.18;;;3.97;;
37955;SDS011;23776;51.592;7.180;2022-08-21T08:35:03;8.77;;;3.53;;
37955;SDS011;23776;51.592;7.180;2022-08-21T08:37:29;14.77;;;4.60;;
37955;SDS011;23776;51.592;7.180;2022-08-21T08:39:56;10.30;;;3.33;;
37955;SDS011;23776;51.592;7.180;2022-08-21T08:42:27;11.38;;;3.90;;
37955;SDS011;23776;51.592;7.180;2022-08-21T08:44:57;13.93;;;3.33;;
37955;SDS011;23776;51.592;7.180;2022-08-21T08:47:25;17.58;;;4.18;;
37955;SDS011;23776;51.592;7.180;2022-08-21T08:49:58;9.88;;;3.15;;
37955;SDS011;23776;51.592;7.180;2022-08-21T08:54:55;8.85;;;2.90;;
37955;SDS011;23776;51.592;7.180;2022-08-21T08:57:26;8.20;;;2.72;;
37955;SDS011;23776;51.592;7.180;2022-08-21T08:59:53;6.63;;;2.90;;
37955;SDS011;23776;51.592;7.180;2022-08-21T09:02:20;11.38;;;2.83;;
37955;SDS011;23776;51.592;7.180;2022-08-21T09:04:48;9.18;;;3.13;;
37955;SDS011;23776;51.592;7.180;2022-08-21T09:07:18;10.52;;;2.67;;
37955;SDS011;23776;51.592;7.180;2022-08-21T09:12:16;6.10;;;2.45;;
37955;SDS011;23776;51.592;7.180;2022-08-21T09:14:47;7.10;;;2.88;;
37955;SDS011;23776;51.592;7.180;2022-08-21T09:27:18;14.15;;;3.13;;
37955;SDS011;23776;51.592;7.180;2022-08-21T09:29:48;10.30;;;2.80;;
37955;SDS011;23776;51.592;7.180;2022-08-21T09:35:21;10.73;;;3.08;;
37955;SDS011;23776;51.592;7.180;2022-08-21T09:37:49;9.40;;;3.20;;
37955;SDS011;23776;51.592;7.180;2022-08-21T09:40:59;9.70;;;2.80;;
37955;SDS011;23776;51.592;7.180;2022-08-21T09:45:31;9.35;;;2.80;;
37955;SDS011;23776;51.592;7.180;2022-08-21T09:48:12;11.00;;;2.85;;
37955;SDS011;23776;51.592;7.180;2022-08-21T09:50:38;8.10;;;2.30;;
37955;SDS011;23776;51.592;7.180;2022-08-21T09:53:04;8.63;;;2.63;;
37955;SDS011;23776;51.592;7.180;2022-08-21T09:55:32;8.63;;;2.38;;
37955;SDS011;23776;51.592;7.180;2022-08-21T09:58:18;13.70;;;2.88;;
37955;SDS011;23776;51.592;7.180;2022-08-21T10:00:45;6.40;;;1.92;;
37955;SDS011;23776;51.592;7.180;2022-08-21T10:03:21;8.50;;;2.30;;
37955;SDS011;23776;51.592;7.180;2022-08-21T10:05:59;6.50;;;2.13;;
37955;SDS011;23776;51.592;7.180;2022-08-21T10:08:27;9.30;;;2.10;;
37955;SDS011;23776;51.592;7.180;2022-08-21T10:11:01;7.25;;;2.25;;
37955;SDS011;23776;51.592;7.180;2022-08-21T10:13:43;9.73;;;3.00;;
37955;SDS011;23776;51.592;7.180;2022-08-21T10:21:33;9.48;;;2.92;;
37955;SDS011;23776;51.592;7.180;2022-08-21T10:24:09;7.43;;;2.08;;
37955;SDS011;23776;51.592;7.180;2022-08-21T10:32:09;8.13;;;2.63;;
37955;SDS011;23776;51.592;7.180;2022-08-21T10:34:45;6.07;;;2.72;;
37955;SDS011;23776;51.592;7.180;2022-08-21T10:40:02;4.97;;;1.65;;
37955;SDS011;23776;51.592;7.180;2022-08-21T10:45:32;5.85;;;1.75;;
37955;SDS011;23776;51.592;7.180;2022-08-21T10:48:06;7.40;;;2.78;;
37955;SDS011;23776;51.592;7.180;2022-08-21T10:53:07;3.67;;;1.58;;
37955;SDS011;23776;51.592;7.180;2022-08-21T10:55:37;9.63;;;2.03;;
37955;SDS011;23776;51.592;7.180;2022-08-21T10:58:08;8.07;;;1.70;;
37955;SDS011;23776;51.592;7.180;2022-08-21T11:00:43;4.63;;;1.70;;
37955;SDS011;23776;51.592;7.180;2022-08-21T11:03:13;6.63;;;2.05;;
37955;SDS011;23776;51.592;7.180;2022-08-21T11:08:12;5.90;;;1.88;;
37955;SDS011;23776;51.592;7.180;2022-08-21T11:13:11;6.85;;;1.52;;
37955;SDS011;23776;51.592;7.180;2022-08-21T11:15:56;3.80;;;1.63;;
37955;SDS011;23776;51.592;7.180;2022-08-21T11:18:31;3.90;;;1.55;;
37955;SDS011;23776;51.592;7.180;2022-08-21T11:21:20;2.47;;;1.80;;
37955;SDS011;23776;51.592;7.180;2022-08-21T11:23:45;3.58;;;1.55;;
37955;SDS011;23776;51.592;7.180;2022-08-21T11:26:17;4.63;;;1.17;;
37955;SDS011;23776;51.592;7.180;2022-08-21T11:28:51;5.60;;;1.13;;
37955;SDS011;23776;51.592;7.180;2022-08-21T11:31:27;3.85;;;1.60;;
37955;SDS011;23776;51.592;7.180;2022-08-21T11:36:46;4.00;;;1.38;;
37955;SDS011;23776;51.592;7.180;2022-08-21T11:47:04;6.72;;;1.50;;
37955;SDS011;23776;51.592;7.180;2022-08-21T11:49:39;4.30;;;1.58;;
37955;SDS011;23776;51.592;7.180;2022-08-21T11:52:20;2.42;;;1.35;;
37955;SDS011;23776;51.592;7.180;2022-08-21T11:57:23;8.23;;;1.85;;
37955;SDS011;23776;51.592;7.180;2022-08-21T12:00:07;2.88;;;1.50;;
37955;SDS011;23776;51.592;7.180;2022-08-21T12:02:38;4.72;;;1.52;;
37955;SDS011;23776;51.592;7.180;2022-08-21T12:05:06;6.32;;;1.42;;
37955;SDS011;23776;51.592;7.180;2022-08-21T12:07:35;6.10;;;1.45;;
37955;SDS011;23776;51.592;7.180;2022-08-21T12:10:02;2.55;;;1.15;;
37955;SDS011;23776;51.592;7.180;2022-08-21T12:12:30;2.03;;;0.93;;
37955;SDS011;23776;51.592;7.180;2022-08-21T12:17:35;3.58;;;1.42;;
37955;SDS011;23776;51.592;7.180;2022-08-21T12:20:26;2.55;;;1.20;;
37955;SDS011;23776;51.592;7.180;2022-08-21T12:22:49;7.07;;;1.48;;
37955;SDS011;23776;51.592;7.180;2022-08-21T12:25:18;5.95;;;1.20;;
37955;SDS011;23776;51.592;7.180;2022-08-21T12:27:45;4.97;;;1.17;;
37955;SDS011;23776;51.592;7.180;2022-08-21T12:32:54;2.72;;;0.93;;
37955;SDS011;23776;51.592;7.180;2022-08-21T12:35:22;3.35;;;0.98;;
37955;SDS011;23776;51.592;7.180;2022-08-21T12:38:00;3.28;;;1.30;;
37955;SDS011;23776;51.592;7.180;2022-08-21T12:40:37;6.75;;;1.63;;
37955;SDS011;23776;51.592;7.180;2022-08-21T12:43:04;5.80;;;1.88;;
37955;SDS011;23776;51.592;7.180;2022-08-21T12:45:32;2.17;;;1.00;;
37955;SDS011;23776;51.592;7.180;2022-08-21T12:48:04;4.22;;;1.30;;
37955;SDS011;23776;51.592;7.180;2022-08-21T12:50:37;5.80;;;1.50;;
37955;SDS011;23776;51.592;7.180;2022-08-21T12:55:33;2.25;;;1.15;;
37955;SDS011;23776;51.592;7.180;2022-08-21T12:57:59;4.93;;;1.27;;
37955;SDS011;23776;51.592;7.180;2022-08-21T13:00:28;6.25;;;1.45;;
37955;SDS011;23776;51.592;7.180;2022-08-21T13:02:54;3.85;;;1.13;;
37955;SDS011;23776;51.592;7.180;2022-08-21T13:07:53;3.00;;;1.27;;
37955;SDS011;23776;51.592;7.180;2022-08-21T13:10:21;6.60;;;1.73;;
37955;SDS011;23776;51.592;7.180;2022-08-21T13:12:47;7.18;;;1.80;;
37955;SDS011;23776;51.592;7.180;2022-08-21T13:15:14;4.28;;;1.48;;
37955;SDS011;23776;51.592;7.180;2022-08-21T13:17:41;2.72;;;1.08;;
37955;SDS011;23776;51.592;7.180;2022-08-21T13:20:20;5.43;;;1.27;;
37955;SDS011;23776;51.592;7.180;2022-08-21T13:22:46;3.70;;;1.67;;
37955;SDS011;23776;51.592;7.180;2022-08-21T13:25:13;4.10;;;1.45;;
37955;SDS011;23776;51.592;7.180;2022-08-21T13:27:43;4.45;;;1.23;;
37955;SDS011;23776;51.592;7.180;2022-08-21T13:30:22;5.40;;;1.60;;
37955;SDS011;23776;51.592;7.180;2022-08-21T13:32:50;1.92;;;0.95;;
37955;SDS011;23776;51.592;7.180;2022-08-21T13:35:18;4.45;;;1.50;;
37955;SDS011;23776;51.592;7.180;2022-08-21T13:37:45;2.10;;;1.00;;
37955;SDS011;23776;51.592;7.180;2022-08-21T13:40:28;8.43;;;4.57;;
37955;SDS011;23776;51.592;7.180;2022-08-21T13:42:55;5.57;;;1.20;;
37955;SDS011;23776;51.592;7.180;2022-08-21T13:45:25;3.35;;;1.60;;
37955;SDS011;23776;51.592;7.180;2022-08-21T13:47:52;4.80;;;1.35;;
37955;SDS011;23776;51.592;7.180;2022-08-21T13:50:19;4.10;;;1.38;;
37955;SDS011;23776;51.592;7.180;2022-08-21T13:52:54;3.97;;;1.20;;
37955;SDS011;23776;51.592;7.180;2022-08-21T13:55:21;3.22;;;1.58;;
37955;SDS011;23776;51.592;7.180;2022-08-21T13:57:47;2.70;;;1.50;;
37955;SDS011;23776;51.592;7.180;2022-08-21T14:00:27;4.90;;;2.00;;
37955;SDS011;23776;51.592;7.180;2022-08-21T14:02:53;3.08;;;1.50;;
37955;SDS011;23776;51.592;7.180;2022-08-21T14:05:26;5.30;;;1.40;;
37955;SDS011;23776;51.592;7.180;2022-08-21T14:10:46;2.30;;;1.10;;
37955;SDS011;23776;51.592;7.180;2022-08-21T14:13:56;4.72;;;1.60;;
37955;SDS011;23776;51.592;7.180;2022-08-21T14:16:03;2.10;;;1.23;;
37955;SDS011;23776;51.592;7.180;2022-08-21T14:18:42;2.75;;;0.98;;
37955;SDS011;23776;51.592;7.180;2022-08-21T14:21:09;11.35;;;2.92;;
37955;SDS011;23776;51.592;7.180;2022-08-21T14:23:36;3.35;;;1.88;;
37955;SDS011;23776;51.592;7.180;2022-08-21T14:26:04;4.05;;;1.50;;
37955;SDS011;23776;51.592;7.180;2022-08-21T14:28:32;3.40;;;1.13;;
37955;SDS011;23776;51.592;7.180;2022-08-21T14:30:59;3.38;;;1.67;;
37955;SDS011;23776;51.592;7.180;2022-08-21T14:33:38;4.85;;;1.33;;
37955;SDS011;23776;51.592;7.180;2022-08-21T14:36:04;2.88;;;1.77;;
37955;SDS011;23776;51.592;7.180;2022-08-21T14:38:30;3.78;;;1.50;;
37955;SDS011;23776;51.592;7.180;2022-08-21T14:40:59;4.57;;;1.70;;
37955;SDS011;23776;51.592;7.180;2022-08-21T14:43:26;3.45;;;1.40;;
37955;SDS011;23776;51.592;7.180;2022-08-21T14:45:52;4.30;;;1.80;;
37955;SDS011;23776;51.592;7.180;2022-08-21T14:48:18;7.25;;;2.17;;
37955;SDS011;23776;51.592;7.180;2022-08-21T14:50:44;4.15;;;1.58;;
37955;SDS011;23776;51.592;7.180;2022-08-21T14:53:10;6.65;;;1.50;;
37955;SDS011;23776;51.592;7.180;2022-08-21T14:55:36;9.25;;;2.58;;
37955;SDS011;23776;51.592;7.180;2022-08-21T14:58:21;5.43;;;1.77;;
37955;SDS011;23776;51.592;7.180;2022-08-21T15:00:48;4.72;;;2.28;;
37955;SDS011;23776;51.592;7.180;2022-08-21T15:03:15;6.97;;;3.03;;
37955;SDS011;23776;51.592;7.180;2022-08-21T15:05:41;4.07;;;1.70;;
37955;SDS011;23776;51.592;7.180;2022-08-21T15:08:07;4.93;;;1.52;;
37955;SDS011;23776;51.592;7.180;2022-08-21T15:10:33;5.65;;;1.40;;
37955;SDS011;23776;51.592;7.180;2022-08-21T15:12:59;3.90;;;1.58;;
37955;SDS011;23776;51.592;7.180;2022-08-21T15:15:25;6.22;;;1.98;;
37955;SDS011;23776;51.592;7.180;2022-08-21T15:17:51;2.60;;;1.55;;
37955;SDS011;23776;51.592;7.180;2022-08-21T15:20:17;8.18;;;1.90;;
37955;SDS011;23776;51.592;7.180;2022-08-21T15:22:43;4.47;;;1.75;;
37955;SDS011;23776;51.592;7.180;2022-08-21T15:25:09;5.50;;;1.50;;
37955;SDS011;23776;51.592;7.180;2022-08-21T15:27:35;3.30;;;1.15;;
37955;SDS011;23776;51.592;7.180;2022-08-21T15:30:03;14.02;;;6.00;;
37955;SDS011;23776;51.592;7.180;2022-08-21T15:32:29;5.75;;;3.50;;
37955;SDS011;23776;51.592;7.180;2022-08-21T15:34:56;3.67;;;1.55;;
37955;SDS011;23776;51.592;7.180;2022-08-21T15:37:23;3.97;;;1.63;;
37955;SDS011;23776;51.592;7.180;2022-08-21T15:39:49;4.53;;;1.50;;
37955;SDS011;23776;51.592;7.180;2022-08-21T15:42:16;4.32;;;1.98;;
37955;SDS011;23776;51.592;7.180;2022-08-21T15:44:42;3.08;;;1.70;;
37955;SDS011;23776;51.592;7.180;2022-08-21T15:47:11;4.55;;;1.85;;
37955;SDS011;23776;51.592;7.180;2022-08-21T15:49:38;3.72;;;1.35;;
37955;SDS011;23776;51.592;7.180;2022-08-21T15:52:04;6.22;;;1.65;;
37955;SDS011;23776;51.592;7.180;2022-08-21T15:54:30;2.38;;;1.20;;
37955;SDS011;23776;51.592;7.180;2022-08-21T15:56:56;4.43;;;1.42;;
37955;SDS011;23776;51.592;7.180;2022-08-21T15:59:22;5.00;;;1.27;;
37955;SDS011;23776;51.592;7.180;2022-08-21T16:01:48;4.70;;;1.48;;